createdAt,value
2023-06-10T00:00:14.309Z,89.05
2023-06-10T00:05:17.430Z,88.57
2023-06-10T00:10:19.165Z,88.67
2023-06-10T00:15:20.981Z,88.58
2023-06-10T00:20:26.182Z,88.75
2023-06-10T00:25:28.051Z,89.01
2023-06-10T00:30:30.097Z,89.10
2023-06-10T00:35:31.816Z,88.83
2023-06-10T00:40:42.051Z,88.74
2023-06-10T00:45:43.861Z,88.79
2023-06-10T00:50:47.888Z,88.87
2023-06-10T00:55:49.707Z,88.94
2023-06-10T01:00:51.864Z,89.24
2023-06-10T01:06:15.485Z,89.16
2023-06-10T01:11:31.088Z,89.22
2023-06-10T01:16:33.737Z,89.28
2023-06-10T01:21:36.585Z,89.58
2023-06-10T01:26:38.526Z,89.77
2023-06-10T01:31:50.405Z,89.60
2023-06-10T01:36:56.030Z,89.93
2023-06-10T01:41:58.351Z,89.71
2023-06-10T01:47:00.153Z,89.65
2023-06-10T01:52:03.133Z,89.54
2023-06-10T01:57:07.282Z,89.77
2023-06-10T02:02:09.003Z,89.99
2023-06-10T02:07:11.046Z,90.27
2023-06-10T02:12:12.809Z,90.57
2023-06-10T02:17:15.833Z,90.40
2023-06-10T02:22:17.524Z,90.27
2023-06-10T02:27:19.707Z,90.01
2023-06-10T02:32:21.523Z,90.17
2023-06-10T02:37:23.555Z,90.21
2023-06-10T02:42:25.348Z,90.10
2023-06-10T02:47:27.500Z,90.36
2023-06-10T02:52:29.884Z,90.27
2023-06-10T02:57:32.015Z,90.34
2023-06-10T03:02:37.989Z,90.21
2023-06-10T03:07:40.430Z,90.19
2023-06-10T03:12:42.562Z,90.05
2023-06-10T03:17:44.632Z,90.23
2023-06-10T03:22:46.996Z,90.05
2023-06-10T03:27:49.003Z,90.03
2023-06-10T03:32:51.038Z,89.85
2023-06-10T03:37:54.452Z,89.84
2023-06-10T03:42:56.380Z,89.67
2023-06-10T03:47:58.495Z,89.82
2023-06-10T03:53:04.764Z,89.90
2023-06-10T03:58:06.912Z,89.45
2023-06-10T04:03:10.693Z,89.35
2023-06-10T04:08:16.338Z,89.12
2023-06-10T04:13:18.597Z,88.96
2023-06-10T04:18:26.319Z,88.77
2023-06-10T04:23:30.278Z,88.28
2023-06-10T04:28:32.366Z,88.00
2023-06-10T04:33:34.324Z,87.77
2023-06-10T04:38:37.024Z,87.33
2023-06-10T04:43:39.751Z,86.98
2023-06-10T04:48:43.451Z,86.62
2023-06-10T04:53:46.189Z,86.51
2023-06-10T04:58:47.963Z,86.50
2023-06-10T05:03:49.945Z,86.00
2023-06-10T05:08:51.804Z,85.11
2023-06-10T05:13:53.518Z,84.49
2023-06-10T05:18:55.228Z,83.44
2023-06-10T05:23:57.185Z,82.83
2023-06-10T05:28:59.715Z,82.26
2023-06-10T05:34:01.395Z,82.23
2023-06-10T05:39:04.061Z,81.35
2023-06-10T05:44:05.827Z,79.73
2023-06-10T05:49:07.614Z,79.44
2023-06-10T05:54:09.309Z,78.71
2023-06-10T05:59:11.030Z,77.85
2023-06-10T06:04:12.866Z,75.91
2023-06-10T06:09:14.912Z,75.21
2023-06-10T06:14:24.639Z,73.43
2023-06-10T06:19:26.482Z,73.19
2023-06-10T06:24:28.640Z,73.52
2023-06-10T06:29:31.246Z,72.73
2023-06-10T06:34:34.624Z,72.36
2023-06-10T06:39:36.334Z,72.87
2023-06-10T06:44:38.070Z,72.95
2023-06-10T06:49:39.813Z,73.41
2023-06-10T06:54:41.608Z,73.01
2023-06-10T06:59:43.303Z,73.08
2023-06-10T07:04:45.271Z,73.79
2023-06-10T07:09:51.755Z,74.40
2023-06-10T07:14:53.550Z,74.19
2023-06-10T07:19:58.506Z,74.59
2023-06-10T07:25:00.266Z,74.31
2023-06-10T07:30:02.661Z,73.54
2023-06-10T07:35:07.024Z,73.32
2023-06-10T07:40:09.766Z,73.03
2023-06-10T07:45:11.971Z,73.20
2023-06-10T07:50:13.938Z,72.18
2023-06-10T07:55:15.696Z,71.23
2023-06-10T08:00:18.118Z,70.35
2023-06-10T08:05:20.251Z,69.71
2023-06-10T08:10:22.087Z,69.71
2023-06-10T08:15:23.829Z,69.60
2023-06-10T08:20:26.021Z,70.22
2023-06-10T08:25:28.596Z,69.57
2023-06-10T08:30:30.295Z,69.71
2023-06-10T08:35:32.052Z,69.53
2023-06-10T08:40:34.430Z,69.12
2023-06-10T08:45:37.969Z,67.67
2023-06-10T08:50:40.759Z,66.28
2023-06-10T08:55:51.021Z,65.58
2023-06-10T09:00:53.728Z,65.55
2023-06-10T09:05:58.147Z,64.78
2023-06-10T09:11:00.021Z,64.57
2023-06-10T09:16:03.249Z,63.31
2023-06-10T09:21:05.491Z,63.47
2023-06-10T09:26:11.708Z,60.27
2023-06-10T09:31:13.556Z,58.61
2023-06-10T09:36:24.900Z,58.76
2023-06-10T09:41:40.348Z,58.51
2023-06-10T09:46:43.212Z,57.32
2023-06-10T09:51:56.148Z,57.52
2023-06-10T09:56:59.871Z,55.49
2023-06-10T10:02:02.094Z,54.35
2023-06-10T10:07:03.988Z,54.72
2023-06-10T10:12:12.341Z,55.02
2023-06-10T10:17:16.118Z,54.20
2023-06-10T10:22:38.423Z,54.01
2023-06-10T10:27:49.500Z,53.80
2023-06-10T10:33:13.646Z,53.69
2023-06-10T10:38:16.196Z,54.09
2023-06-10T10:43:19.200Z,53.00
2023-06-10T10:48:21.048Z,53.89
2023-06-10T10:53:22.962Z,52.27
2023-06-10T10:58:27.774Z,52.42
2023-06-10T11:03:31.970Z,50.89
2023-06-10T11:08:33.929Z,51.22
2023-06-10T11:13:39.680Z,51.85
2023-06-10T11:18:42.650Z,53.52
2023-06-10T11:23:45.183Z,53.35
2023-06-10T11:28:47.423Z,53.28
2023-06-10T11:33:54.604Z,53.18
2023-06-10T11:39:05.418Z,53.03
2023-06-10T11:44:18.307Z,52.52
2023-06-10T11:49:21.747Z,52.12
2023-06-10T11:54:23.481Z,51.90
2023-06-10T11:59:28.880Z,52.35
2023-06-10T12:04:30.743Z,51.44
2023-06-10T12:09:34.200Z,50.61
2023-06-10T12:14:56.063Z,51.40
2023-06-10T12:19:58.621Z,51.51
2023-06-10T12:25:05.785Z,47.23
2023-06-10T12:30:08.130Z,47.50
2023-06-10T12:35:12.425Z,46.79
2023-06-10T12:40:14.494Z,47.64
2023-06-10T12:45:27.497Z,47.32
2023-06-10T12:50:29.473Z,47.36
2023-06-10T12:55:31.376Z,46.89
2023-06-10T13:00:33.311Z,46.75
2023-06-10T13:05:38.321Z,46.68
2023-06-10T13:10:40.142Z,46.42
2023-06-10T13:15:44.027Z,46.03
2023-06-10T13:20:56.044Z,44.19
2023-06-10T13:26:30.502Z,42.88
2023-06-10T13:31:33.758Z,42.91
2023-06-10T13:36:36.054Z,42.93
2023-06-10T13:41:37.766Z,44.22
2023-06-10T13:46:39.533Z,43.89
2023-06-10T13:51:41.483Z,43.55
2023-06-10T13:56:43.242Z,43.96
2023-06-10T14:01:45.040Z,44.37
2023-06-10T14:06:46.914Z,45.25
2023-06-10T14:11:48.752Z,46.94
2023-06-10T14:16:51.014Z,46.91
2023-06-10T14:21:54.874Z,48.97
2023-06-10T14:26:58.192Z,46.68
2023-06-10T14:32:00.703Z,46.27
2023-06-10T14:37:05.286Z,46.60
2023-06-10T14:42:08.004Z,46.53
2023-06-10T14:47:09.686Z,50.95
2023-06-10T14:52:11.483Z,52.27
2023-06-10T14:57:13.169Z,53.35
2023-06-10T15:02:14.969Z,54.49
2023-06-10T15:07:16.735Z,55.89
2023-06-10T15:12:18.431Z,56.38
2023-06-10T15:17:20.094Z,56.74
2023-06-10T15:22:22.299Z,57.34
2023-06-10T15:27:24.097Z,57.38
2023-06-10T15:32:25.809Z,57.58
2023-06-10T15:37:27.571Z,57.59
2023-06-10T15:42:29.390Z,57.65
2023-06-10T15:47:31.405Z,57.91
2023-06-10T15:52:33.488Z,58.03
2023-06-10T15:57:35.354Z,57.94
2023-06-10T16:02:37.651Z,57.93
2023-06-10T16:07:41.378Z,58.57
2023-06-10T16:12:43.157Z,59.15
2023-06-10T16:17:45.065Z,59.91
2023-06-10T16:22:46.862Z,60.83
2023-06-10T16:27:48.623Z,61.65
2023-06-10T16:32:50.539Z,62.16
2023-06-10T16:37:52.766Z,62.29
2023-06-10T16:42:54.448Z,62.75
2023-06-10T16:47:57.156Z,62.78
2023-06-10T16:52:59.365Z,62.58
2023-06-10T16:58:01.066Z,62.86
2023-06-10T17:03:02.887Z,63.11
2023-06-10T17:08:04.964Z,63.37
2023-06-10T17:13:06.780Z,63.76
2023-06-10T17:18:08.730Z,64.23
2023-06-10T17:23:11.223Z,64.09
2023-06-10T17:28:13.248Z,64.08
2023-06-10T17:33:15.052Z,64.14
2023-06-10T17:38:17.877Z,64.46
2023-06-10T17:43:21.563Z,64.17
2023-06-10T17:48:23.293Z,63.61
2023-06-10T17:53:25.004Z,63.64
2023-06-10T17:58:26.756Z,63.71
2023-06-10T18:03:28.913Z,63.26
2023-06-10T18:08:31.058Z,63.45
2023-06-10T18:13:33.643Z,63.52
2023-06-10T18:18:35.384Z,63.58
2023-06-10T18:23:37.222Z,62.72
2023-06-10T18:28:39.117Z,62.97
2023-06-10T18:33:40.989Z,62.79
2023-06-10T18:38:42.761Z,61.87
2023-06-10T18:43:44.482Z,62.14
2023-06-10T18:48:48.727Z,62.01
2023-06-10T18:53:50.695Z,61.92
2023-06-10T18:58:52.383Z,62.07
2023-06-10T19:03:54.233Z,62.42
2023-06-10T19:08:56.347Z,62.79
2023-06-10T19:13:58.106Z,63.25
2023-06-10T19:18:59.869Z,63.62
2023-06-10T19:24:01.716Z,64.10
2023-06-10T19:29:03.498Z,64.41
2023-06-10T19:34:05.296Z,64.95
2023-06-10T19:39:07.754Z,65.24
2023-06-10T19:44:09.503Z,65.55
2023-06-10T19:49:11.331Z,66.08
2023-06-10T19:54:13.249Z,66.50
2023-06-10T19:59:14.975Z,67.08
2023-06-10T20:04:16.916Z,67.29
2023-06-10T20:09:18.758Z,67.71
2023-06-10T20:14:21.972Z,67.97
2023-06-10T20:19:23.708Z,68.10
2023-06-10T20:24:25.646Z,68.53
2023-06-10T20:29:27.616Z,68.95
2023-06-10T20:34:29.329Z,69.48
2023-06-10T20:39:31.188Z,70.01
2023-06-10T20:44:32.872Z,70.68
2023-06-10T20:49:34.607Z,70.80
2023-06-10T20:54:36.496Z,70.93
2023-06-10T20:59:38.257Z,71.19
2023-06-10T21:04:39.954Z,71.58
2023-06-10T21:09:41.784Z,71.92
2023-06-10T21:14:49.526Z,72.40
2023-06-10T21:19:51.629Z,72.98
2023-06-10T21:24:53.504Z,73.48
2023-06-10T21:29:55.230Z,73.77
2023-06-10T21:34:57.498Z,74.00
2023-06-10T21:39:59.384Z,74.64
2023-06-10T21:45:01.089Z,74.69
2023-06-10T21:50:04.353Z,74.86
2023-06-10T21:55:09.388Z,75.08
2023-06-10T22:00:15.061Z,75.39
2023-06-10T22:05:32.864Z,75.68
2023-06-10T22:10:34.669Z,75.92
2023-06-10T22:15:37.143Z,76.36
2023-06-10T22:20:38.864Z,76.25
2023-06-10T22:25:41.311Z,76.60
2023-06-10T22:30:43.237Z,77.32
2023-06-10T22:35:45.900Z,78.24
2023-06-10T22:40:47.586Z,78.29
2023-06-10T22:45:49.474Z,78.69
2023-06-10T22:50:51.329Z,79.35
2023-06-10T22:55:53.021Z,79.70
2023-06-10T23:00:54.802Z,80.07
2023-06-10T23:05:56.525Z,80.46
2023-06-10T23:10:58.215Z,80.90
2023-06-10T23:16:03.950Z,81.32
2023-06-10T23:21:06.090Z,81.44
2023-06-10T23:26:07.788Z,81.69
2023-06-10T23:31:09.469Z,81.69
2023-06-10T23:36:14.024Z,82.02
2023-06-10T23:41:15.799Z,82.05
2023-06-10T23:46:18.534Z,82.29
2023-06-10T23:51:21.190Z,82.43
2023-06-10T23:56:24.640Z,83.13
